Latest METARs, TAFs and NOTAMs for LIMF


---------------------------------------------------------------------------
	(OBSERVATIONS)
LIMF 231020Z VRB02KT CAVOK 25/13 Q1018=
LIMF 230950Z 09003KT 030V160 CAVOK 24/12 Q1018=
LIMF 230920Z VRB02KT CAVOK 23/11 Q1018=
LIMF 230850Z 13003KT 080V220 CAVOK 23/12 Q1018=
LIMF 230820Z VRB02KT CAVOK 23/11 Q1018=
LIMF 230750Z VRB02KT CAVOK 22/12 Q1018=
---------------------------------------------------------------------------
	(FC)
Sorry, FC For LIMF Not Found
---------------------------------------------------------------------------
	(TERMINAL AREA FORECAST)
LIMF 230500Z 2306/2406 VRB05KT CAVOK=
---------------------------------------------------------------------------
	(NOTAMS)


LIMF A1375/17 REF AIP AD 2 LIMF 1-8 ITEM 19 'RADIO NAVIGATION
    AND LANDING AIDS' REFERRING VOR/DME 'MMP' FREQ 113.35MHZ
    CH 80Y COLUMN 8 'REMARKS' ADD AS FLW: MAINT VOR: SECOND MONDAY
    EACH MONTH 2000-2200 (1900-2100. 07 MAR 10:36 2017 UNTIL
    PERM. CREATED: 07 MAR 10:37 2017

LIMF A1545/17 BIELLA VOR/DME 'BLA' FREQ 116.10MHZ CH 108X AVBL
    AS FLW: - VOR RDL 312DEG NOT USABLE - DME OPR REF AIP AD
    2 LIMF 1-8. 15 MAR 14:23 2017 UNTIL 11 JUN 23:59 2017 ESTIMATED.
    CREATED: 15 MAR 14:23 2017

LIMF A2050/17 GENOVA VOR/DME 'GEN' FREQ 112.80MHZ CH75X AVBL
    AS FLW: -VOR ON TEST -DME OPERATIVE REF AIP AD 2 LIMF 1-8.
    04 APR 08:15 2017 UNTIL 01 JUL 23:59 2017 ESTIMATED. CREATED:
    04 APR 08:16 2017

LIMF A2132/17 GENOVA NDB 'GEN' FREQ 318.00KHZ UNSERVICEABLE REF
    AIP AD 2 LIMF 1-8. 06 APR 11:36 2017 UNTIL 02 JUL 23:59 2017
    ESTIMATED. CREATED: 06 APR 11:36 2017

LIMF A2652/17 REF AIP AD 2 LIMF 1-1 ITEM 3 'OPERATIONAL HOURS'
    BOX 8 'FUELLING' REFERRING TO CARBOIL SRL OPR HR TO READ:
    HR 0500-2100 (0400-2000) INSTEAD OF 0500-2200 (0400-2100)
    OTHER DATA UNCHANGED. 01 MAY 05:00 2017 UNTIL PERM. CREATED:
    28 APR 15:03 2017

LIMF A2804/17 REF AIP AD 2 LIMF 1-9 ITEM 19 'RADIO NAVIGATION
    AND LANDING AIDS' REFERRING TO VOR/DME 'TOP' FREQ 114.50MHZ
    CH 92X COLUMN 5 'ANTENNA SITE COORDINATES (WGS84)' CHANGE
    DME COORD TO READ: DME 445531.0N 0075141.9E COLUMN 7 'DESIGNATED
    OPERATIONAL COVERAGE LIMITATION' MODIFY LIMITATIONS TO READ:
    SECTOR 015DEG/100DEG AT 40NM MRA 4000FT SECTOR 100DEG/160DEG
    AT 40NM MRA 6000FT SECTOR 160DEG/230DEG AT 40NM MRA 10000FT
    SECTOR 230DEG/340DEG AT 40NM MRA 15000FT SECTOR 340DEG/015DEG
    AT 40NM MRA 10000FT. 05 MAY 14:56 2017 UNTIL PERM. CREATED:
    05 MAY 14:57 2017

LIMF A2999/17 TRIGGER NOTAM-PERM AIP AIRAC AMDT 5/17 EFFECTIVE
    DATE 22 JUN 2017 TORINO/CASELLE AD INITIAL CLIMB PROCEDURES
    AND SID RWY 18/36 UPDATED AIRAC IS POSTED AND AVBL ON WEBSITE
    WWW.ENAV.IT. 22 JUN 00:00 2017 UNTIL 05 JUL 23:59 2017. CREATED:
    11 MAY 14:48 2017

LIMF A3066/17 CASELLE TACAN 'CAS' CH32X DO NOT USE FOR OPR PURPOSES
    AWAITING FLTCK. REF AIP AD 2 LIMF 1-8. 15 MAY 16:14 2017
    UNTIL 01 AUG 15:30 2017 ESTIMATED. CREATED: 15 MAY 16:14
    2017

LIMF A3209/17 LDG AND TKOF FORBIDDEN TO ALL TFC DUE TO WIP, EXC
    STATE, AMBULANCE AND HUMANITARIAN FLT ONLY IF NOTIFIED TO
    AERODROME OPERATOR SAGAT SPA AT LEAST 2HR AND 30MIN BEFORE
    WORKS BEGIN. REF AIP AD 2 LIMF 1-1. DAILY 2130-0350, 23 MAY
    21:30 2017 UNTIL 26 MAY 03:50 2017. CREATED: 22 MAY 10:26
    2017

LIMF A6701/16 REF AIP GEN 3.5-1 'METEOROLOGICAL SERVICES' PARAGRAPH
    3 'METEOROLOGICAL OBSERVATIONS AND REPORTS' SUBPARAGRAPH
    3.1.12 'AIRPORT METEOROLOGICAL OBSERVATION AND FORECASTS/AIRPORT
    AND WIND SHEAR WARNINGS-ENAV S.P.A.' COLUMN 1 'AIRPORT AND
    LOCATION INDICATOR/TORINO CASELLE-LIMF' COLUMN 8 'OBSERVATION
    SITES' CHG TO READ: ANEMOMETERS SEE AD 2 LIMF TABLE 15 BAROMETERS
    1) 448M AFTER THR RWY36, 185M RIGHT SIDE RCL (MAIN) 2) 300M
    AFTER THR RWY18, 140M LEFT SIDE RCL CEILOMETERS 1) 984M BEFORE
    THR RWY36, 10M RIGHT SIDE RCL RAIN GAUGE 1) 459M AFTER THR
    RWY36, 187M RIGHT SIDE RCL THERMOIGROMETERS 1) 448M AFTER
    THR RWY36, 185M RIGHT SIDE RCL (MAIN) 2) 300M AFTER THR RWY18,
    140M LEFT SIDE RCL TRANSMISSOMETERS 1) TDZ RWY36, 412M AFTER
    THR RWY36, 120M RIGHT SIDE RCL 2) MID RWY36, 1443M AFTER
    THR RWY36, 120M RIGHT SIDE RCL 3) END RWY36, 2615M AFTER
    THR RWY36, 120M RIGHT SIDE RCL VISIBILIMETERS 1) 463M BEFORE
    THR RWY36, 185M RIGHT SIDE RCL. 28 SEP 10:49 2016 UNTIL PERM.
    CREATED: 28 SEP 10:49 2016

LIMF M0944/17 REF FLIP 'CENTRAL AN NORTHERN ITALY' AD LIMF 1-1
    'LANDING CHART' BOX 'DECLARED DISTANCES' NEW INT TAKE-OFF
    C IMPLEMENTED WITH FLW CHARACTERISTICS: INT TAKE-OFF C RWY18
    TORA 1670M 5479FT TODA 2120M 6955FT ASDA 1670M 5479FT INT
    TAKE-OFF C RWY36 TORA 1457M 4780FT TODA 1757M 5764FT ASDA
    1457M 4780FT. 02 MAR 09:08 2017 UNTIL PERM. CREATED: 02 MAR
    09:08 2017

---------------------------------------------------------------------------